Terminal Aerodrome Forecast
Issued by NWS

Home | Current Version | Previous Version | Text Only | Print | Product List | Glossary On
Versions: 1 2 3 4 5 6 7 8 9 10 11 12 13
000
FTUS44 KOUN 190520
TAFWWR
TAF
KWWR 190520Z 1906/2006 17015G21KT P6SM BKN250
     FM191400 19020G30KT P6SM BKN180
     FM200100 17015G21KT P6SM BKN150=

USA.gov is the U.S. government's official web portal to all federal, state and local government web resources and services.